Weso, Nevada
Current Conditions -  °F | °C
As of 5:56 PM on Saturday 25 Oct 2014 (Local Time) from KWMC Reporting Station
Clear Clear  
Wind Chill: 58°   Ceiling: Unl
Heat Index: 58°   Visibility: 9mi
Dew Point: 25°   Wind: 21mph
Humidity: 28%   Direction: 230°SW
Pressure: 29.94"   Gusts: 33mph
Location:  41.1353°N, 118.186°W
Report Text: KWMC 260056Z AUTO 23018G29KT 9SM CLR 14/M04 A2994 RMK AO2 PK WND 24032/0015 SLP109 T01441039
Loading
Personal Weather Stations






























Interactive Weather Map
Tropical Storm Tracking
New forecast layout! Learn more

10-Day Weather Forecast

Advertisements
Track Severe Weather on mobile